Impacts TAF Board INFO
FOR SITUATIONAL AWARENESS. NOT TO BE USED FOR FLIGHT PLANNING PURPOSES.
IDs:

KMDW - Chicago/Midway Intl, IL, US

Issued at 0352 UTC 17 Aug 2018
Updated at 0525 UTC 17 Aug 2018
Potential Impact None Slight Moderate High
Time<<17/18Z 17/19Z 17/20Z 17/21Z 17/22Z 17/23Z 18/00Z 18/01Z 18/02Z 18/03Z 18/04Z 18/05Z 18/06Z>>
Type PRVL PRVL PRVL PRVL PRVL PRVL PRVL PRVL PRVL PRVL PRVL PRVL
VIS >6 >6 >6 >6 >6 >6 >6 >6 >6 >6 >6 >6
CIG 40 40 40 40 40 40 -- -- -- -- -- --
Cover BKN BKN BKN BKN BKN BKN FEW FEW FEW FEW FEW FEW
FltCat VFR VFR VFR VFR VFR VFR VFR VFR VFR VFR VFR VFR
WX -- -- -- -- -- -- -- -- -- -- -- --
WDir 50 50 50 50 50 50 40 40 40 40 40 40
WSpd 9 9 9 9 9 9 8 8 8 8 8 8
WGst -- -- -- -- -- -- -- -- -- -- -- --

Raw TAF
KMDW 170352Z 1704/1806 VRB03KT 6SM -SHRA VCTS SCT025 BKN050CB
  TEMPO 1705/1706 28015G25KT 2SM TSRA BKN015 OVC025CB
  FM170800 VRB03KT 6SM BR VCSH SCT020 BKN035
  FM171400 02005KT P6SM SCT020 BKN035
  FM171800 05009KT P6SM BKN040
  FM180000 04008KT P6SM FEW050


METAR Board
Radar Display
Forecast Discussion

FOR SITUATIONAL AWARENESS. NOT TO BE USED FOR FLIGHT PLANNING PURPOSES.